sensor_id;sensor_type;location;lat;lon;timestamp;pressure;altitude;pressure_sealevel;temperature;humidity
20160;BME280;50187;50.492;12.134;2023-08-24T00:01:52;97942.28;;;28.16;43.00
20160;BME280;50187;50.492;12.134;2023-08-24T00:04:18;97945.84;;;28.17;42.96
20160;BME280;50187;50.492;12.134;2023-08-24T00:06:45;97948.59;;;28.17;42.98
20160;BME280;50187;50.492;12.134;2023-08-24T00:09:12;97947.09;;;28.14;43.01
20160;BME280;50187;50.492;12.134;2023-08-24T00:11:38;97942.50;;;28.15;43.16
20160;BME280;50187;50.492;12.134;2023-08-24T00:14:05;97942.66;;;28.13;43.02
20160;BME280;50187;50.492;12.134;2023-08-24T00:16:32;97942.88;;;28.12;42.97
20160;BME280;50187;50.492;12.134;2023-08-24T00:18:58;97946.28;;;28.14;42.92
20160;BME280;50187;50.492;12.134;2023-08-24T00:21:25;97937.63;;;28.10;42.84
20160;BME280;50187;50.492;12.134;2023-08-24T00:23:51;97933.00;;;28.10;43.05
20160;BME280;50187;50.492;12.134;2023-08-24T00:26:19;97930.44;;;28.09;42.92
20160;BME280;50187;50.492;12.134;2023-08-24T00:28:46;97928.78;;;28.08;42.97
20160;BME280;50187;50.492;12.134;2023-08-24T00:31:15;97932.34;;;28.08;43.01
20160;BME280;50187;50.492;12.134;2023-08-24T00:33:42;97930.66;;;28.07;43.16
20160;BME280;50187;50.492;12.134;2023-08-24T00:36:09;97927.94;;;28.07;43.10
20160;BME280;50187;50.492;12.134;2023-08-24T00:38:35;97927.09;;;28.07;42.82
20160;BME280;50187;50.492;12.134;2023-08-24T00:41:03;97923.72;;;28.05;42.85
20160;BME280;50187;50.492;12.134;2023-08-24T00:43:30;97931.06;;;28.04;42.96
20160;BME280;50187;50.492;12.134;2023-08-24T00:45:59;97928.34;;;28.04;42.94
20160;BME280;50187;50.492;12.134;2023-08-24T00:48:27;97933.81;;;28.04;42.80
20160;BME280;50187;50.492;12.134;2023-08-24T00:50:57;97935.72;;;28.04;42.90
20160;BME280;50187;50.492;12.134;2023-08-24T00:53:26;97931.28;;;28.03;42.72
20160;BME280;50187;50.492;12.134;2023-08-24T00:55:54;97943.06;;;28.03;42.81
20160;BME280;50187;50.492;12.134;2023-08-24T00:58:21;97930.44;;;28.02;42.91
20160;BME280;50187;50.492;12.134;2023-08-24T01:00:52;97936.97;;;28.01;42.92
20160;BME280;50187;50.492;12.134;2023-08-24T01:03:22;97936.97;;;28.01;42.94
20160;BME280;50187;50.492;12.134;2023-08-24T01:05:51;97944.53;;;27.99;42.81
20160;BME280;50187;50.492;12.134;2023-08-24T01:08:18;97946.41;;;27.99;42.77
20160;BME280;50187;50.492;12.134;2023-08-24T01:13:36;97950.16;;;27.98;42.84
20160;BME280;50187;50.492;12.134;2023-08-24T01:16:18;97939.22;;;27.98;42.71
20160;BME280;50187;50.492;12.134;2023-08-24T01:18:47;97935.84;;;27.96;42.78
20160;BME280;50187;50.492;12.134;2023-08-24T01:21:16;97942.16;;;27.96;42.83
20160;BME280;50187;50.492;12.134;2023-08-24T01:23:49;97938.59;;;27.96;42.69
20160;BME280;50187;50.492;12.134;2023-08-24T01:26:20;97939.41;;;27.96;42.63
20160;BME280;50187;50.492;12.134;2023-08-24T01:28:47;97945.97;;;27.95;42.65
20160;BME280;50187;50.492;12.134;2023-08-24T01:31:17;97931.63;;;27.93;42.75
20160;BME280;50187;50.492;12.134;2023-08-24T01:33:44;97930.59;;;27.94;42.57
20160;BME280;50187;50.492;12.134;2023-08-24T01:36:13;97929.94;;;27.92;42.59
20160;BME280;50187;50.492;12.134;2023-08-24T01:38:41;97936.28;;;27.92;42.73
20160;BME280;50187;50.492;12.134;2023-08-24T01:41:22;97936.91;;;27.94;42.55
20160;BME280;50187;50.492;12.134;2023-08-24T01:43:53;97935.22;;;27.93;42.67
20160;BME280;50187;50.492;12.134;2023-08-24T01:46:22;97929.09;;;27.91;42.61
20160;BME280;50187;50.492;12.134;2023-08-24T01:48:52;97931.00;;;27.91;42.69
20160;BME280;50187;50.492;12.134;2023-08-24T01:51:19;97924.69;;;27.90;42.43
20160;BME280;50187;50.492;12.134;2023-08-24T01:53:46;97921.53;;;27.87;42.61
20160;BME280;50187;50.492;12.134;2023-08-24T01:56:15;97923.22;;;27.88;42.46
20160;BME280;50187;50.492;12.134;2023-08-24T01:58:43;97925.31;;;27.86;42.49
20160;BME280;50187;50.492;12.134;2023-08-24T02:01:09;97912.66;;;27.85;42.68
20160;BME280;50187;50.492;12.134;2023-08-24T02:03:38;97920.88;;;27.85;42.49
20160;BME280;50187;50.492;12.134;2023-08-24T02:06:06;97918.13;;;27.85;42.57
20160;BME280;50187;50.492;12.134;2023-08-24T02:08:34;97920.66;;;27.86;42.38
20160;BME280;50187;50.492;12.134;2023-08-24T02:11:02;97911.84;;;27.84;42.59
20160;BME280;50187;50.492;12.134;2023-08-24T02:13:31;97919.00;;;27.85;42.39
20160;BME280;50187;50.492;12.134;2023-08-24T02:16:05;97914.56;;;27.84;42.37
20160;BME280;50187;50.492;12.134;2023-08-24T02:18:34;97917.94;;;27.86;42.32
20160;BME280;50187;50.492;12.134;2023-08-24T02:21:10;97914.38;;;27.86;42.21
20160;BME280;50187;50.492;12.134;2023-08-24T02:23:38;97915.41;;;27.85;42.35
20160;BME280;50187;50.492;12.134;2023-08-24T02:26:05;97903.84;;;27.83;42.31
20160;BME280;50187;50.492;12.134;2023-08-24T02:28:33;97899.41;;;27.82;42.36
20160;BME280;50187;50.492;12.134;2023-08-24T02:31:01;97897.72;;;27.81;42.26
20160;BME280;50187;50.492;12.134;2023-08-24T02:33:27;97893.13;;;27.81;42.21
20160;BME280;50187;50.492;12.134;2023-08-24T02:35:54;97890.13;;;27.76;42.25
20160;BME280;50187;50.492;12.134;2023-08-24T02:38:21;97895.41;;;27.77;42.18
20160;BME280;50187;50.492;12.134;2023-08-24T02:40:48;97894.16;;;27.80;42.28
20160;BME280;50187;50.492;12.134;2023-08-24T02:43:14;97894.56;;;27.77;42.30
20160;BME280;50187;50.492;12.134;2023-08-24T02:45:41;97897.09;;;27.79;42.10
20160;BME280;50187;50.492;12.134;2023-08-24T02:48:07;97896.44;;;27.76;42.25
20160;BME280;50187;50.492;12.134;2023-08-24T02:50:34;97891.84;;;27.77;42.14
20160;BME280;50187;50.492;12.134;2023-08-24T02:53:00;97885.50;;;27.76;42.26
20160;BME280;50187;50.492;12.134;2023-08-24T02:55:28;97882.78;;;27.76;42.08
20160;BME280;50187;50.492;12.134;2023-08-24T02:57:58;97888.25;;;27.76;41.92
20160;BME280;50187;50.492;12.134;2023-08-24T03:00:24;97884.06;;;27.74;41.95
20160;BME280;50187;50.492;12.134;2023-08-24T03:02:51;97884.88;;;27.74;42.06
20160;BME280;50187;50.492;12.134;2023-08-24T03:05:17;97888.66;;;27.73;42.08
20160;BME280;50187;50.492;12.134;2023-08-24T03:07:44;97897.72;;;27.74;42.04
20160;BME280;50187;50.492;12.134;2023-08-24T03:10:12;97894.13;;;27.73;41.86
20160;BME280;50187;50.492;12.134;2023-08-24T03:12:39;97896.03;;;27.73;42.14
20160;BME280;50187;50.492;12.134;2023-08-24T03:15:05;97892.47;;;27.72;42.01
20160;BME280;50187;50.492;12.134;2023-08-24T03:17:33;97897.94;;;27.72;41.94
20160;BME280;50187;50.492;12.134;2023-08-24T03:20:03;97883.41;;;27.72;42.07
20160;BME280;50187;50.492;12.134;2023-08-24T03:22:30;97893.50;;;27.71;41.91
20160;BME280;50187;50.492;12.134;2023-08-24T03:24:56;97889.06;;;27.70;41.82
20160;BME280;50187;50.492;12.134;2023-08-24T03:27:23;97894.53;;;27.70;41.88
20160;BME280;50187;50.492;12.134;2023-08-24T03:29:51;97887.16;;;27.71;41.96
20160;BME280;50187;50.492;12.134;2023-08-24T03:32:18;97879.19;;;27.69;41.91
20160;BME280;50187;50.492;12.134;2023-08-24T03:34:45;97881.28;;;27.67;41.91
20160;BME280;50187;50.492;12.134;2023-08-24T03:37:12;97875.81;;;27.67;41.88
20160;BME280;50187;50.492;12.134;2023-08-24T03:39:40;97876.84;;;27.66;41.99
20160;BME280;50187;50.492;12.134;2023-08-24T03:42:07;97883.19;;;27.67;41.85
20160;BME280;50187;50.492;12.134;2023-08-24T03:44:34;97886.75;;;27.67;41.78
20160;BME280;50187;50.492;12.134;2023-08-24T03:47:00;97889.69;;;27.66;41.82
20160;BME280;50187;50.492;12.134;2023-08-24T03:49:27;97885.06;;;27.66;41.67
20160;BME280;50187;50.492;12.134;2023-08-24T03:51:53;97882.72;;;27.63;41.59
20160;BME280;50187;50.492;12.134;2023-08-24T03:54:21;97890.72;;;27.65;41.64
20160;BME280;50187;50.492;12.134;2023-08-24T03:56:47;97888.00;;;27.65;41.76
20160;BME280;50187;50.492;12.134;2023-08-24T03:59:14;97882.94;;;27.62;41.63
20160;BME280;50187;50.492;12.134;2023-08-24T04:01:40;97881.91;;;27.63;41.61
20160;BME280;50187;50.492;12.134;2023-08-24T04:04:07;97892.84;;;27.63;41.58
20160;BME280;50187;50.492;12.134;2023-08-24T04:06:34;97891.97;;;27.62;41.64
20160;BME280;50187;50.492;12.134;2023-08-24T04:09:01;97898.31;;;27.63;41.49
20160;BME280;50187;50.492;12.134;2023-08-24T04:11:28;97885.69;;;27.62;41.53
20160;BME280;50187;50.492;12.134;2023-08-24T04:13:54;97891.97;;;27.62;41.43
20160;BME280;50187;50.492;12.134;2023-08-24T04:16:21;97896.59;;;27.62;41.39
20160;BME280;50187;50.492;12.134;2023-08-24T04:18:47;97890.69;;;27.58;41.66
20160;BME280;50187;50.492;12.134;2023-08-24T04:21:14;97899.53;;;27.60;41.57
20160;BME280;50187;50.492;12.134;2023-08-24T04:23:40;97909.63;;;27.59;41.51
20160;BME280;50187;50.492;12.134;2023-08-24T04:26:11;97895.31;;;27.57;41.57
20160;BME280;50187;50.492;12.134;2023-08-24T04:28:38;97904.34;;;27.58;41.37
20160;BME280;50187;50.492;12.134;2023-08-24T04:31:05;97898.88;;;27.58;41.58
20160;BME280;50187;50.492;12.134;2023-08-24T04:33:32;97901.63;;;27.58;41.40
20160;BME280;50187;50.492;12.134;2023-08-24T04:35:58;97895.31;;;27.57;41.49
20160;BME280;50187;50.492;12.134;2023-08-24T04:38:25;97891.09;;;27.55;41.48
20160;BME280;50187;50.492;12.134;2023-08-24T04:40:54;97902.69;;;27.57;41.62
20160;BME280;50187;50.492;12.134;2023-08-24T04:43:23;97903.72;;;27.56;41.41
20160;BME280;50187;50.492;12.134;2023-08-24T04:45:51;97899.50;;;27.53;41.49
20160;BME280;50187;50.492;12.134;2023-08-24T04:48:23;97896.56;;;27.55;41.40
20160;BME280;50187;50.492;12.134;2023-08-24T04:50:50;97890.69;;;27.51;41.36
20160;BME280;50187;50.492;12.134;2023-08-24T04:53:17;97886.88;;;27.52;41.37
20160;BME280;50187;50.492;12.134;2023-08-24T04:55:44;97884.16;;;27.52;41.54
20160;BME280;50187;50.492;12.134;2023-08-24T04:58:11;97888.97;;;27.50;41.48
20160;BME280;50187;50.492;12.134;2023-08-24T05:00:39;97883.31;;;27.52;41.49
20160;BME280;50187;50.492;12.134;2023-08-24T05:03:06;97887.09;;;27.51;41.52
20160;BME280;50187;50.492;12.134;2023-08-24T05:05:35;97891.72;;;27.50;41.70
20160;BME280;50187;50.492;12.134;2023-08-24T05:08:03;97895.06;;;27.52;41.60
20160;BME280;50187;50.492;12.134;2023-08-24T05:10:33;97895.28;;;27.51;41.54
20160;BME280;50187;50.492;12.134;2023-08-24T05:13:00;97898.00;;;27.51;41.65
20160;BME280;50187;50.492;12.134;2023-08-24T05:15:26;97892.53;;;27.51;41.60
20160;BME280;50187;50.492;12.134;2023-08-24T05:17:53;97889.19;;;27.49;41.49
20160;BME280;50187;50.492;12.134;2023-08-24T05:20:22;97892.53;;;27.51;41.76
20160;BME280;50187;50.492;12.134;2023-08-24T05:22:49;97890.84;;;27.50;41.59
20160;BME280;50187;50.492;12.134;2023-08-24T05:25:15;97891.72;;;27.50;41.58
20160;BME280;50187;50.492;12.134;2023-08-24T05:27:45;97891.91;;;27.49;41.68
20160;BME280;50187;50.492;12.134;2023-08-24T05:30:12;97891.47;;;27.45;41.54
20160;BME280;50187;50.492;12.134;2023-08-24T05:32:38;97896.09;;;27.45;41.09
20160;BME280;50187;50.492;12.134;2023-08-24T05:35:06;97896.06;;;27.38;40.30
20160;BME280;50187;50.492;12.134;2023-08-24T05:37:33;97899.28;;;27.20;39.83
20160;BME280;50187;50.492;12.134;2023-08-24T05:40:01;97894.78;;;27.05;39.60
20160;BME280;50187;50.492;12.134;2023-08-24T05:42:30;97898.84;;;26.88;39.67
20160;BME280;50187;50.492;12.134;2023-08-24T05:44:57;97885.56;;;26.78;39.88
20160;BME280;50187;50.492;12.134;2023-08-24T05:47:23;97883.03;;;26.77;40.03
20160;BME280;50187;50.492;12.134;2023-08-24T05:49:50;97885.97;;;26.75;40.10
20160;BME280;50187;50.492;12.134;2023-08-24T05:52:16;97884.47;;;26.72;40.16
20160;BME280;50187;50.492;12.134;2023-08-24T05:54:43;97875.34;;;26.65;40.22
20160;BME280;50187;50.492;12.134;2023-08-24T05:57:09;97877.41;;;26.63;40.26
20160;BME280;50187;50.492;12.134;2023-08-24T05:59:36;97874.69;;;26.63;40.33
20160;BME280;50187;50.492;12.134;2023-08-24T06:02:03;97888.34;;;26.63;40.48
20160;BME280;50187;50.492;12.134;2023-08-24T06:04:30;97880.75;;;26.59;40.77
20160;BME280;50187;50.492;12.134;2023-08-24T06:06:57;97886.19;;;26.59;40.84
20160;BME280;50187;50.492;12.134;2023-08-24T06:09:24;97880.06;;;26.56;40.84
20160;BME280;50187;50.492;12.134;2023-08-24T06:11:50;97884.41;;;26.44;40.96
20160;BME280;50187;50.492;12.134;2023-08-24T06:14:17;97883.50;;;26.37;41.09
20160;BME280;50187;50.492;12.134;2023-08-24T06:16:43;97878.69;;;26.17;41.66
20160;BME280;50187;50.492;12.134;2023-08-24T06:19:10;97875.97;;;26.17;41.69
20160;BME280;50187;50.492;12.134;2023-08-24T06:21:37;97880.13;;;25.98;42.14
20160;BME280;50187;50.492;12.134;2023-08-24T06:24:03;97869.31;;;25.90;42.29
20160;BME280;50187;50.492;12.134;2023-08-24T06:26:30;97861.56;;;25.72;42.99
20160;BME280;50187;50.492;12.134;2023-08-24T06:28:57;97861.63;;;25.57;43.20
20160;BME280;50187;50.492;12.134;2023-08-24T06:31:23;97849.78;;;25.50;43.57
20160;BME280;50187;50.492;12.134;2023-08-24T06:33:50;97846.78;;;25.45;43.71
20160;BME280;50187;50.492;12.134;2023-08-24T06:36:16;97836.91;;;25.44;43.62
20160;BME280;50187;50.492;12.134;2023-08-24T06:38:43;97843.47;;;25.49;43.83
20160;BME280;50187;50.492;12.134;2023-08-24T06:41:10;97842.38;;;25.44;44.04
20160;BME280;50187;50.492;12.134;2023-08-24T06:43:38;97829.75;;;25.58;43.95
20160;BME280;50187;50.492;12.134;2023-08-24T06:46:06;97836.22;;;25.71;43.62
20160;BME280;50187;50.492;12.134;2023-08-24T06:48:35;97835.31;;;25.86;43.39
20160;BME280;50187;50.492;12.134;2023-08-24T06:51:03;97829.84;;;26.01;43.48
20160;BME280;50187;50.492;12.134;2023-08-24T06:53:31;97832.91;;;26.13;43.05
20160;BME280;50187;50.492;12.134;2023-08-24T06:55:58;97827.59;;;26.26;42.97
20160;BME280;50187;50.492;12.134;2023-08-24T06:58:24;97836.47;;;26.35;42.79
20160;BME280;50187;50.492;12.134;2023-08-24T07:00:51;97838.84;;;26.45;42.76
20160;BME280;50187;50.492;12.134;2023-08-24T07:03:18;97830.53;;;26.53;42.64
20160;BME280;50187;50.492;12.134;2023-08-24T07:05:45;97829.72;;;26.59;42.65
20160;BME280;50187;50.492;12.134;2023-08-24T07:08:13;97836.28;;;26.65;42.74
20160;BME280;50187;50.492;12.134;2023-08-24T07:10:40;97830.28;;;26.69;42.45
20160;BME280;50187;50.492;12.134;2023-08-24T07:13:07;97832.22;;;26.76;42.57
20160;BME280;50187;50.492;12.134;2023-08-24T07:15:35;97825.94;;;26.82;42.53
20160;BME280;50187;50.492;12.134;2023-08-24T07:18:02;97832.47;;;26.87;42.39
20160;BME280;50187;50.492;12.134;2023-08-24T07:20:29;97824.75;;;26.91;42.54
20160;BME280;50187;50.492;12.134;2023-08-24T07:22:55;97836.75;;;26.97;42.41
20160;BME280;50187;50.492;12.134;2023-08-24T07:25:23;97836.16;;;27.01;42.35
20160;BME280;50187;50.492;12.134;2023-08-24T07:27:50;97836.41;;;27.06;42.34
20160;BME280;50187;50.492;12.134;2023-08-24T07:30:17;97832.44;;;27.09;42.19
20160;BME280;50187;50.492;12.134;2023-08-24T07:32:59;97832.44;;;27.16;42.31
20160;BME280;50187;50.492;12.134;2023-08-24T07:35:25;97831.00;;;27.20;42.32
20160;BME280;50187;50.492;12.134;2023-08-24T07:37:53;97836.91;;;27.23;42.15
20160;BME280;50187;50.492;12.134;2023-08-24T07:40:20;97826.63;;;27.25;42.19
20160;BME280;50187;50.492;12.134;2023-08-24T07:42:48;97824.13;;;27.31;42.12
20160;BME280;50187;50.492;12.134;2023-08-24T07:45:17;97818.25;;;27.34;42.10
20160;BME280;50187;50.492;12.134;2023-08-24T07:47:43;97826.72;;;27.39;42.09
20160;BME280;50187;50.492;12.134;2023-08-24T07:50:10;97829.88;;;27.42;41.86
20160;BME280;50187;50.492;12.134;2023-08-24T07:52:38;97829.28;;;27.47;41.89
20160;BME280;50187;50.492;12.134;2023-08-24T07:55:08;97828.00;;;27.50;41.85
20160;BME280;50187;50.492;12.134;2023-08-24T07:57:36;97827.63;;;27.53;41.87
20160;BME280;50187;50.492;12.134;2023-08-24T08:00:06;97828.25;;;27.55;41.84
20160;BME280;50187;50.492;12.134;2023-08-24T08:02:38;97820.50;;;27.58;41.56
20160;BME280;50187;50.492;12.134;2023-08-24T08:05:05;97815.44;;;27.62;41.52
20160;BME280;50187;50.492;12.134;2023-08-24T08:07:34;97799.91;;;27.63;41.39
20160;BME280;50187;50.492;12.134;2023-08-24T08:10:01;97805.59;;;27.68;41.22
20160;BME280;50187;50.492;12.134;2023-08-24T08:12:27;97807.06;;;27.70;41.40
20160;BME280;50187;50.492;12.134;2023-08-24T08:14:55;97809.38;;;27.73;41.19
20160;BME280;50187;50.492;12.134;2023-08-24T08:17:22;97811.69;;;27.76;41.20
20160;BME280;50187;50.492;12.134;2023-08-24T08:19:54;97816.78;;;27.80;41.33
20160;BME280;50187;50.492;12.134;2023-08-24T08:22:20;97828.13;;;27.83;41.32
20160;BME280;50187;50.492;12.134;2023-08-24T08:24:47;97826.88;;;27.86;41.26
20160;BME280;50187;50.492;12.134;2023-08-24T08:27:14;97830.25;;;27.88;41.26
20160;BME280;50187;50.492;12.134;2023-08-24T08:29:40;97824.38;;;27.91;41.28
20160;BME280;50187;50.492;12.134;2023-08-24T08:32:07;97818.69;;;27.92;41.13
20160;BME280;50187;50.492;12.134;2023-08-24T08:34:34;97825.66;;;27.95;41.05
20160;BME280;50187;50.492;12.134;2023-08-24T08:37:00;97813.44;;;27.98;41.01
20160;BME280;50187;50.492;12.134;2023-08-24T08:39:27;97813.06;;;28.01;41.12
20160;BME280;50187;50.492;12.134;2023-08-24T08:41:53;97823.59;;;28.04;41.15
20160;BME280;50187;50.492;12.134;2023-08-24T08:44:21;97831.59;;;28.05;41.07
20160;BME280;50187;50.492;12.134;2023-08-24T08:46:49;97826.72;;;28.07;41.17
20160;BME280;50187;50.492;12.134;2023-08-24T08:49:17;97835.38;;;28.11;41.07
20160;BME280;50187;50.492;12.134;2023-08-24T08:51:44;97824.44;;;28.11;41.16
20160;BME280;50187;50.492;12.134;2023-08-24T08:54:11;97823.81;;;28.16;41.12
20160;BME280;50187;50.492;12.134;2023-08-24T08:56:38;97817.91;;;28.19;40.99
20160;BME280;50187;50.492;12.134;2023-08-24T08:59:07;97805.09;;;28.19;40.83
20160;BME280;50187;50.492;12.134;2023-08-24T09:01:34;97810.97;;;28.23;41.00
20160;BME280;50187;50.492;12.134;2023-08-24T09:04:02;97826.13;;;28.25;40.97
20160;BME280;50187;50.492;12.134;2023-08-24T09:06:29;97822.34;;;28.26;41.07
20160;BME280;50187;50.492;12.134;2023-08-24T09:08:56;97817.28;;;28.30;40.89
20160;BME280;50187;50.492;12.134;2023-08-24T09:11:23;97814.38;;;28.32;40.88
20160;BME280;50187;50.492;12.134;2023-08-24T09:13:50;97807.81;;;28.33;40.89
20160;BME280;50187;50.492;12.134;2023-08-24T09:16:17;97799.63;;;28.33;40.89
20160;BME280;50187;50.492;12.134;2023-08-24T09:18:45;97793.31;;;28.32;40.79
20160;BME280;50187;50.492;12.134;2023-08-24T09:21:14;97796.88;;;28.33;40.85
20160;BME280;50187;50.492;12.134;2023-08-24T09:23:53;97799.84;;;28.31;40.91
20160;BME280;50187;50.492;12.134;2023-08-24T09:26:31;97797.97;;;28.32;40.99
20160;BME280;50187;50.492;12.134;2023-08-24T09:28:59;97789.53;;;28.33;41.11
20160;BME280;50187;50.492;12.134;2023-08-24T09:31:36;97789.31;;;28.35;41.06
20160;BME280;50187;50.492;12.134;2023-08-24T09:34:03;97789.09;;;28.36;40.95
20160;BME280;50187;50.492;12.134;2023-08-24T09:36:33;97779.00;;;28.37;40.97
20160;BME280;50187;50.492;12.134;2023-08-24T09:39:01;97775.22;;;28.38;41.00
20160;BME280;50187;50.492;12.134;2023-08-24T09:44:06;97781.94;;;28.35;41.16
20160;BME280;50187;50.492;12.134;2023-08-24T09:46:32;97775.22;;;28.31;41.12
20160;BME280;50187;50.492;12.134;2023-08-24T09:48:59;97766.16;;;28.24;41.08
20160;BME280;50187;50.492;12.134;2023-08-24T09:51:27;97775.19;;;28.24;41.17
20160;BME280;50187;50.492;12.134;2023-08-24T09:53:57;97770.16;;;28.21;41.38
20160;BME280;50187;50.492;12.134;2023-08-24T09:56:28;97758.59;;;28.19;41.41
20160;BME280;50187;50.492;12.134;2023-08-24T09:58:58;97759.63;;;28.18;41.39
20160;BME280;50187;50.492;12.134;2023-08-24T10:01:27;97754.59;;;28.15;41.42
20160;BME280;50187;50.492;12.134;2023-08-24T10:03:55;97733.16;;;28.12;41.38
20160;BME280;50187;50.492;12.134;2023-08-24T10:06:26;97705.34;;;28.08;41.57
20160;BME280;50187;50.492;12.134;2023-08-24T10:08:56;97705.56;;;28.07;41.53
20160;BME280;50187;50.492;12.134;2023-08-24T10:11:31;97700.31;;;28.05;41.65
20160;BME280;50187;50.492;12.134;2023-08-24T10:17:23;97670.66;;;28.02;41.61
20160;BME280;50187;50.492;12.134;2023-08-24T10:19:51;97682.88;;;28.00;41.57
20160;BME280;50187;50.492;12.134;2023-08-24T10:22:19;97671.25;;;27.98;41.74
20160;BME280;50187;50.492;12.134;2023-08-24T10:24:51;97677.78;;;27.97;41.63
20160;BME280;50187;50.492;12.134;2023-08-24T10:27:18;97677.16;;;27.94;41.60
20160;BME280;50187;50.492;12.134;2023-08-24T10:29:45;97675.66;;;27.92;41.75
20160;BME280;50187;50.492;12.134;2023-08-24T10:32:12;97682.22;;;27.91;41.59
20160;BME280;50187;50.492;12.134;2023-08-24T10:34:39;97673.34;;;27.89;41.65
20160;BME280;50187;50.492;12.134;2023-08-24T10:37:09;97674.22;;;27.89;41.80
20160;BME280;50187;50.492;12.134;2023-08-24T10:39:38;97665.38;;;27.87;41.88
20160;BME280;50187;50.492;12.134;2023-08-24T10:42:13;97662.03;;;27.85;41.82
20160;BME280;50187;50.492;12.134;2023-08-24T10:44:45;97644.13;;;27.83;42.02
20160;BME280;50187;50.492;12.134;2023-08-24T10:47:20;97653.81;;;27.85;42.02
20160;BME280;50187;50.492;12.134;2023-08-24T10:52:24;97648.97;;;27.87;42.13
20160;BME280;50187;50.492;12.134;2023-08-24T10:54:53;97638.03;;;27.87;42.17
20160;BME280;50187;50.492;12.134;2023-08-24T11:00:14;97623.31;;;27.88;42.16
20160;BME280;50187;50.492;12.134;2023-08-24T11:02:44;97618.69;;;27.89;42.00
20160;BME280;50187;50.492;12.134;2023-08-24T11:05:31;97608.19;;;27.86;42.23
20160;BME280;50187;50.492;12.134;2023-08-24T11:08:05;97615.34;;;27.87;42.37
20160;BME280;50187;50.492;12.134;2023-08-24T11:13:11;97618.91;;;27.87;42.21
20160;BME280;50187;50.492;12.134;2023-08-24T11:15:41;97623.75;;;27.85;42.61
20160;BME280;50187;50.492;12.134;2023-08-24T11:18:31;97616.38;;;27.86;42.43
20160;BME280;50187;50.492;12.134;2023-08-24T11:21:06;97614.69;;;27.85;42.34
20160;BME280;50187;50.492;12.134;2023-08-24T11:23:33;97617.41;;;27.85;42.39
20160;BME280;50187;50.492;12.134;2023-08-24T11:26:00;97619.09;;;27.86;42.59
20160;BME280;50187;50.492;12.134;2023-08-24T11:28:29;97612.81;;;27.85;42.45
20160;BME280;50187;50.492;12.134;2023-08-24T11:30:57;97603.75;;;27.85;42.39
20160;BME280;50187;50.492;12.134;2023-08-24T11:33:34;97612.38;;;27.88;42.48
20160;BME280;50187;50.492;12.134;2023-08-24T11:36:03;97612.59;;;27.87;42.37
20160;BME280;50187;50.492;12.134;2023-08-24T11:38:40;97594.72;;;27.91;42.34
20160;BME280;50187;50.492;12.134;2023-08-24T11:41:18;97587.34;;;27.91;42.58
20160;BME280;50187;50.492;12.134;2023-08-24T11:43:46;97582.72;;;27.92;42.53
20160;BME280;50187;50.492;12.134;2023-08-24T11:46:18;97578.94;;;27.93;42.56
20160;BME280;50187;50.492;12.134;2023-08-24T11:48:45;97584.41;;;27.93;42.56
20160;BME280;50187;50.492;12.134;2023-08-24T11:51:13;97583.34;;;27.94;42.36
20160;BME280;50187;50.492;12.134;2023-08-24T11:53:44;97578.50;;;27.96;42.52
20160;BME280;50187;50.492;12.134;2023-08-24T11:56:14;97577.44;;;27.97;42.40
20160;BME280;50187;50.492;12.134;2023-08-24T11:58:48;97582.53;;;28.00;42.27
20160;BME280;50187;50.492;12.134;2023-08-24T12:01:15;97570.31;;;28.03;42.36
20160;BME280;50187;50.492;12.134;2023-08-24T12:03:42;97566.53;;;28.04;42.40
20160;BME280;50187;50.492;12.134;2023-08-24T12:06:14;97565.28;;;28.06;42.32
20160;BME280;50187;50.492;12.134;2023-08-24T12:08:45;97562.53;;;28.06;42.37
20160;BME280;50187;50.492;12.134;2023-08-24T12:11:16;97566.09;;;28.07;42.31
20160;BME280;50187;50.492;12.134;2023-08-24T12:13:49;97565.88;;;28.08;42.45
20160;BME280;50187;50.492;12.134;2023-08-24T12:16:17;97557.69;;;28.08;42.24
20160;BME280;50187;50.492;12.134;2023-08-24T12:19:02;97562.50;;;28.13;42.36
20160;BME280;50187;50.492;12.134;2023-08-24T12:21:33;97563.97;;;28.16;42.13
20160;BME280;50187;50.492;12.134;2023-08-24T12:24:01;97563.53;;;28.19;42.39
20160;BME280;50187;50.492;12.134;2023-08-24T12:26:35;97549.25;;;28.17;42.15
20160;BME280;50187;50.492;12.134;2023-08-24T12:29:04;97560.19;;;28.23;42.17
20160;BME280;50187;50.492;12.134;2023-08-24T12:31:32;97568.16;;;28.25;41.99
20160;BME280;50187;50.492;12.134;2023-08-24T12:34:07;97566.03;;;28.27;42.21
20160;BME280;50187;50.492;12.134;2023-08-24T12:36:37;97560.34;;;28.28;42.00
20160;BME280;50187;50.492;12.134;2023-08-24T12:39:05;97558.25;;;28.31;42.14
20160;BME280;50187;50.492;12.134;2023-08-24T12:41:34;97546.47;;;28.30;41.99
20160;BME280;50187;50.492;12.134;2023-08-24T12:44:00;97543.31;;;28.33;41.88
20160;BME280;50187;50.492;12.134;2023-08-24T12:46:35;97546.88;;;28.34;41.80
20160;BME280;50187;50.492;12.134;2023-08-24T12:49:02;97534.03;;;28.34;41.93
20160;BME280;50187;50.492;12.134;2023-08-24T12:51:29;97535.72;;;28.35;42.05
20160;BME280;50187;50.492;12.134;2023-08-24T12:53:55;97521.00;;;28.36;42.03
20160;BME280;50187;50.492;12.134;2023-08-24T12:56:22;97521.59;;;28.38;41.91
20160;BME280;50187;50.492;12.134;2023-08-24T12:58:48;97510.03;;;28.36;42.03
20160;BME280;50187;50.492;12.134;2023-08-24T13:01:15;97505.19;;;28.38;41.99
20160;BME280;50187;50.492;12.134;2023-08-24T13:03:42;97506.03;;;28.39;41.95
20160;BME280;50187;50.492;12.134;2023-08-24T13:06:08;97502.22;;;28.40;41.95
20160;BME280;50187;50.492;12.134;2023-08-24T13:08:52;97494.22;;;28.38;41.87
20160;BME280;50187;50.492;12.134;2023-08-24T13:11:19;97495.31;;;28.37;42.00
20160;BME280;50187;50.492;12.134;2023-08-24T13:13:45;97497.19;;;28.37;42.05